sensor_id;sensor_type;location;lat;lon;timestamp;temperature;humidity
13231;DHT22;6681;53.254;10.398;2023-02-15T00:01:51;4.20;99.90
13231;DHT22;6681;53.254;10.398;2023-02-15T00:04:20;4.30;99.90
13231;DHT22;6681;53.254;10.398;2023-02-15T00:06:46;4.30;99.90
13231;DHT22;6681;53.254;10.398;2023-02-15T00:09:12;4.30;99.90
13231;DHT22;6681;53.254;10.398;2023-02-15T00:11:39;4.30;99.90
13231;DHT22;6681;53.254;10.398;2023-02-15T00:14:11;4.30;99.90
13231;DHT22;6681;53.254;10.398;2023-02-15T00:16:38;4.30;99.90
13231;DHT22;6681;53.254;10.398;2023-02-15T00:19:04;4.20;99.90
13231;DHT22;6681;53.254;10.398;2023-02-15T00:21:31;4.20;99.90
13231;DHT22;6681;53.254;10.398;2023-02-15T00:23:58;4.20;99.90
13231;DHT22;6681;53.254;10.398;2023-02-15T00:26:25;4.30;99.90
13231;DHT22;6681;53.254;10.398;2023-02-15T00:28:50;4.30;99.90
13231;DHT22;6681;53.254;10.398;2023-02-15T00:31:16;4.20;99.90
13231;DHT22;6681;53.254;10.398;2023-02-15T00:33:42;4.20;99.90
13231;DHT22;6681;53.254;10.398;2023-02-15T00:36:09;4.20;99.90
13231;DHT22;6681;53.254;10.398;2023-02-15T00:38:35;4.10;99.90
13231;DHT22;6681;53.254;10.398;2023-02-15T00:41:03;4.10;99.90
13231;DHT22;6681;53.254;10.398;2023-02-15T00:43:30;4.10;99.90
13231;DHT22;6681;53.254;10.398;2023-02-15T00:45:56;4.10;99.90
13231;DHT22;6681;53.254;10.398;2023-02-15T00:48:22;4.10;99.90
13231;DHT22;6681;53.254;10.398;2023-02-15T00:51:06;3.90;99.90
13231;DHT22;6681;53.254;10.398;2023-02-15T00:53:32;3.90;99.90
13231;DHT22;6681;53.254;10.398;2023-02-15T00:55:58;3.90;99.90
13231;DHT22;6681;53.254;10.398;2023-02-15T00:58:24;3.90;99.90
13231;DHT22;6681;53.254;10.398;2023-02-15T01:00:50;3.90;99.90
13231;DHT22;6681;53.254;10.398;2023-02-15T01:03:17;3.80;99.90
13231;DHT22;6681;53.254;10.398;2023-02-15T01:05:43;3.90;99.90
13231;DHT22;6681;53.254;10.398;2023-02-15T01:08:09;3.80;99.90
13231;DHT22;6681;53.254;10.398;2023-02-15T01:10:35;3.80;99.90
13231;DHT22;6681;53.254;10.398;2023-02-15T01:13:01;3.90;99.90
13231;DHT22;6681;53.254;10.398;2023-02-15T01:15:27;3.80;99.90
13231;DHT22;6681;53.254;10.398;2023-02-15T01:17:53;3.80;99.90
13231;DHT22;6681;53.254;10.398;2023-02-15T01:20:20;3.80;99.90
13231;DHT22;6681;53.254;10.398;2023-02-15T01:22:46;3.90;99.90
13231;DHT22;6681;53.254;10.398;2023-02-15T01:25:12;3.70;99.90
13231;DHT22;6681;53.254;10.398;2023-02-15T01:27:37;3.60;99.90
13231;DHT22;6681;53.254;10.398;2023-02-15T01:30:03;3.60;99.90
13231;DHT22;6681;53.254;10.398;2023-02-15T01:32:30;3.60;99.90
13231;DHT22;6681;53.254;10.398;2023-02-15T01:34:56;5.40;99.90
13231;DHT22;6681;53.254;10.398;2023-02-15T01:37:22;3.70;99.90
13231;DHT22;6681;53.254;10.398;2023-02-15T01:39:47;3.70;99.90
13231;DHT22;6681;53.254;10.398;2023-02-15T01:42:13;3.80;99.90
13231;DHT22;6681;53.254;10.398;2023-02-15T01:44:59;3.80;99.90
13231;DHT22;6681;53.254;10.398;2023-02-15T01:52:58;3.60;99.90
13231;DHT22;6681;53.254;10.398;2023-02-15T01:55:29;3.70;99.90
13231;DHT22;6681;53.254;10.398;2023-02-15T01:57:57;3.60;99.90
13231;DHT22;6681;53.254;10.398;2023-02-15T02:00:23;4.10;99.90
13231;DHT22;6681;53.254;10.398;2023-02-15T02:02:52;3.60;99.90
13231;DHT22;6681;53.254;10.398;2023-02-15T02:05:18;4.00;99.90
13231;DHT22;6681;53.254;10.398;2023-02-15T02:07:46;3.60;99.90
13231;DHT22;6681;53.254;10.398;2023-02-15T02:10:18;3.50;99.90
13231;DHT22;6681;53.254;10.398;2023-02-15T02:12:45;3.60;99.90
13231;DHT22;6681;53.254;10.398;2023-02-15T02:15:13;3.60;99.90
13231;DHT22;6681;53.254;10.398;2023-02-15T02:17:54;3.60;99.90
13231;DHT22;6681;53.254;10.398;2023-02-15T02:23:38;3.50;99.90
13231;DHT22;6681;53.254;10.398;2023-02-15T02:29:23;3.40;99.90
13231;DHT22;6681;53.254;10.398;2023-02-15T02:35:25;3.50;99.90
13231;DHT22;6681;53.254;10.398;2023-02-15T02:38:18;3.40;99.90
13231;DHT22;6681;53.254;10.398;2023-02-15T02:41:16;3.30;99.90
13231;DHT22;6681;53.254;10.398;2023-02-15T02:44:05;3.30;99.90
13231;DHT22;6681;53.254;10.398;2023-02-15T02:49:11;3.20;99.90
13231;DHT22;6681;53.254;10.398;2023-02-15T02:51:37;3.10;99.90
13231;DHT22;6681;53.254;10.398;2023-02-15T02:54:05;3.20;99.90
13231;DHT22;6681;53.254;10.398;2023-02-15T02:56:37;3.10;99.90
13231;DHT22;6681;53.254;10.398;2023-02-15T02:59:12;3.10;99.90
13231;DHT22;6681;53.254;10.398;2023-02-15T03:01:45;3.20;99.90
13231;DHT22;6681;53.254;10.398;2023-02-15T03:04:17;3.10;99.90
13231;DHT22;6681;53.254;10.398;2023-02-15T03:06:52;3.20;99.90
13231;DHT22;6681;53.254;10.398;2023-02-15T03:09:25;3.20;99.90
13231;DHT22;6681;53.254;10.398;2023-02-15T03:12:00;3.10;99.90
13231;DHT22;6681;53.254;10.398;2023-02-15T03:14:27;3.00;99.90
13231;DHT22;6681;53.254;10.398;2023-02-15T03:16:54;2.90;99.90
13231;DHT22;6681;53.254;10.398;2023-02-15T03:19:31;2.80;99.90
13231;DHT22;6681;53.254;10.398;2023-02-15T03:24:57;2.70;99.90
13231;DHT22;6681;53.254;10.398;2023-02-15T03:27:27;2.70;99.90
13231;DHT22;6681;53.254;10.398;2023-02-15T03:29:58;2.70;99.90
13231;DHT22;6681;53.254;10.398;2023-02-15T03:32:25;2.70;99.90
13231;DHT22;6681;53.254;10.398;2023-02-15T03:34:53;2.90;99.90
13231;DHT22;6681;53.254;10.398;2023-02-15T03:40:17;2.70;99.90
13231;DHT22;6681;53.254;10.398;2023-02-15T03:43:33;2.70;99.90
13231;DHT22;6681;53.254;10.398;2023-02-15T03:48:47;2.80;99.90
13231;DHT22;6681;53.254;10.398;2023-02-15T03:51:19;2.80;99.90
13231;DHT22;6681;53.254;10.398;2023-02-15T03:54:03;2.70;99.90
13231;DHT22;6681;53.254;10.398;2023-02-15T03:56:30;2.80;99.90
13231;DHT22;6681;53.254;10.398;2023-02-15T03:58:55;2.80;99.90
13231;DHT22;6681;53.254;10.398;2023-02-15T04:04:41;2.70;99.90
13231;DHT22;6681;53.254;10.398;2023-02-15T04:07:08;2.60;99.90
13231;DHT22;6681;53.254;10.398;2023-02-15T04:09:34;2.60;99.90
13231;DHT22;6681;53.254;10.398;2023-02-15T04:12:18;2.60;99.90
13231;DHT22;6681;53.254;10.398;2023-02-15T04:14:44;2.70;99.90
13231;DHT22;6681;53.254;10.398;2023-02-15T04:17:28;2.60;99.90
13231;DHT22;6681;53.254;10.398;2023-02-15T04:19:54;2.60;99.90
13231;DHT22;6681;53.254;10.398;2023-02-15T04:22:38;2.70;99.90
13231;DHT22;6681;53.254;10.398;2023-02-15T04:25:23;2.60;99.90
13231;DHT22;6681;53.254;10.398;2023-02-15T04:27:53;2.50;99.90
13231;DHT22;6681;53.254;10.398;2023-02-15T04:30:21;2.50;99.90
13231;DHT22;6681;53.254;10.398;2023-02-15T04:32:47;2.90;99.90
13231;DHT22;6681;53.254;10.398;2023-02-15T04:35:13;3.20;99.90
13231;DHT22;6681;53.254;10.398;2023-02-15T04:37:40;2.20;99.90
13231;DHT22;6681;53.254;10.398;2023-02-15T04:40:07;2.20;99.90
13231;DHT22;6681;53.254;10.398;2023-02-15T04:42:33;2.00;99.90
13231;DHT22;6681;53.254;10.398;2023-02-15T04:44:59;2.00;99.90
13231;DHT22;6681;53.254;10.398;2023-02-15T04:47:25;2.00;99.90
13231;DHT22;6681;53.254;10.398;2023-02-15T04:49:53;1.90;99.90
13231;DHT22;6681;53.254;10.398;2023-02-15T04:52:19;1.90;99.90
13231;DHT22;6681;53.254;10.398;2023-02-15T04:54:45;1.90;99.90
13231;DHT22;6681;53.254;10.398;2023-02-15T04:57:11;1.80;99.90
13231;DHT22;6681;53.254;10.398;2023-02-15T04:59:37;2.50;99.90
13231;DHT22;6681;53.254;10.398;2023-02-15T05:02:03;1.80;99.90
13231;DHT22;6681;53.254;10.398;2023-02-15T05:04:28;2.30;99.90
13231;DHT22;6681;53.254;10.398;2023-02-15T05:06:54;1.80;99.90
13231;DHT22;6681;53.254;10.398;2023-02-15T05:09:20;1.80;99.90
13231;DHT22;6681;53.254;10.398;2023-02-15T05:11:45;1.80;99.90
13231;DHT22;6681;53.254;10.398;2023-02-15T05:14:11;1.70;99.90
13231;DHT22;6681;53.254;10.398;2023-02-15T05:16:37;1.60;99.90
13231;DHT22;6681;53.254;10.398;2023-02-15T05:19:03;1.80;99.90
13231;DHT22;6681;53.254;10.398;2023-02-15T05:21:29;2.20;99.90
13231;DHT22;6681;53.254;10.398;2023-02-15T05:23:55;1.80;99.90
13231;DHT22;6681;53.254;10.398;2023-02-15T05:26:22;1.90;99.90
13231;DHT22;6681;53.254;10.398;2023-02-15T05:29:07;1.80;99.90
13231;DHT22;6681;53.254;10.398;2023-02-15T05:31:34;3.40;99.90
13231;DHT22;6681;53.254;10.398;2023-02-15T05:34:00;1.70;99.90
13231;DHT22;6681;53.254;10.398;2023-02-15T05:36:26;1.70;99.90
13231;DHT22;6681;53.254;10.398;2023-02-15T05:38:51;1.70;99.90
13231;DHT22;6681;53.254;10.398;2023-02-15T05:41:17;1.70;99.90
13231;DHT22;6681;53.254;10.398;2023-02-15T05:43:43;1.70;99.90
13231;DHT22;6681;53.254;10.398;2023-02-15T05:46:09;1.70;99.90
13231;DHT22;6681;53.254;10.398;2023-02-15T05:48:35;2.50;99.90
13231;DHT22;6681;53.254;10.398;2023-02-15T05:51:04;1.80;99.90
13231;DHT22;6681;53.254;10.398;2023-02-15T05:53:32;1.90;99.90
13231;DHT22;6681;53.254;10.398;2023-02-15T05:55:58;1.90;99.90
13231;DHT22;6681;53.254;10.398;2023-02-15T05:58:33;2.60;99.90
13231;DHT22;6681;53.254;10.398;2023-02-15T06:00:59;1.80;99.90
13231;DHT22;6681;53.254;10.398;2023-02-15T06:03:25;3.10;99.90
13231;DHT22;6681;53.254;10.398;2023-02-15T06:05:52;1.60;99.90
13231;DHT22;6681;53.254;10.398;2023-02-15T06:08:18;1.60;99.90
13231;DHT22;6681;53.254;10.398;2023-02-15T06:10:46;1.90;99.90
13231;DHT22;6681;53.254;10.398;2023-02-15T06:13:12;1.40;99.90
13231;DHT22;6681;53.254;10.398;2023-02-15T06:15:37;1.50;99.90
13231;DHT22;6681;53.254;10.398;2023-02-15T06:18:03;1.50;99.90
13231;DHT22;6681;53.254;10.398;2023-02-15T06:20:29;1.50;99.90
13231;DHT22;6681;53.254;10.398;2023-02-15T06:22:54;1.50;99.90
13231;DHT22;6681;53.254;10.398;2023-02-15T06:25:20;1.60;99.90
13231;DHT22;6681;53.254;10.398;2023-02-15T06:27:46;1.60;99.90
13231;DHT22;6681;53.254;10.398;2023-02-15T06:30:12;1.50;99.90
13231;DHT22;6681;53.254;10.398;2023-02-15T06:32:37;1.40;99.90
13231;DHT22;6681;53.254;10.398;2023-02-15T06:35:03;1.40;99.90
13231;DHT22;6681;53.254;10.398;2023-02-15T06:37:29;1.40;99.90
13231;DHT22;6681;53.254;10.398;2023-02-15T06:39:54;1.50;99.90
13231;DHT22;6681;53.254;10.398;2023-02-15T06:42:21;1.50;99.90
13231;DHT22;6681;53.254;10.398;2023-02-15T06:44:47;1.60;99.90
13231;DHT22;6681;53.254;10.398;2023-02-15T06:47:13;2.40;99.90
13231;DHT22;6681;53.254;10.398;2023-02-15T06:49:38;1.50;99.90
13231;DHT22;6681;53.254;10.398;2023-02-15T06:52:04;1.50;99.90
13231;DHT22;6681;53.254;10.398;2023-02-15T06:54:30;1.90;99.90
13231;DHT22;6681;53.254;10.398;2023-02-15T06:56:55;1.50;99.90
13231;DHT22;6681;53.254;10.398;2023-02-15T06:59:21;1.50;99.90
13231;DHT22;6681;53.254;10.398;2023-02-15T07:01:46;1.50;99.90
13231;DHT22;6681;53.254;10.398;2023-02-15T07:04:12;1.50;99.90
13231;DHT22;6681;53.254;10.398;2023-02-15T07:06:38;1.40;99.90
13231;DHT22;6681;53.254;10.398;2023-02-15T07:09:04;1.30;99.90
13231;DHT22;6681;53.254;10.398;2023-02-15T07:11:30;1.30;99.90
13231;DHT22;6681;53.254;10.398;2023-02-15T07:14:14;2.00;99.90
13231;DHT22;6681;53.254;10.398;2023-02-15T07:16:39;1.20;99.90
13231;DHT22;6681;53.254;10.398;2023-02-15T07:19:05;1.10;99.90
13231;DHT22;6681;53.254;10.398;2023-02-15T07:21:31;1.10;99.90
13231;DHT22;6681;53.254;10.398;2023-02-15T07:23:57;1.00;99.90
13231;DHT22;6681;53.254;10.398;2023-02-15T07:26:23;2.90;99.90
13231;DHT22;6681;53.254;10.398;2023-02-15T07:28:49;0.90;99.90
13231;DHT22;6681;53.254;10.398;2023-02-15T07:31:14;0.80;99.90
13231;DHT22;6681;53.254;10.398;2023-02-15T07:33:40;2.80;99.90
13231;DHT22;6681;53.254;10.398;2023-02-15T07:36:07;0.90;99.90
13231;DHT22;6681;53.254;10.398;2023-02-15T07:38:36;1.00;99.90
13231;DHT22;6681;53.254;10.398;2023-02-15T07:41:04;1.00;99.90
13231;DHT22;6681;53.254;10.398;2023-02-15T07:43:32;1.00;99.90
13231;DHT22;6681;53.254;10.398;2023-02-15T07:46:06;1.00;99.90
13231;DHT22;6681;53.254;10.398;2023-02-15T07:48:33;1.00;99.90
13231;DHT22;6681;53.254;10.398;2023-02-15T07:51:03;1.00;99.90
13231;DHT22;6681;53.254;10.398;2023-02-15T07:53:33;1.10;99.90
13231;DHT22;6681;53.254;10.398;2023-02-15T07:56:06;1.20;99.90
13231;DHT22;6681;53.254;10.398;2023-02-15T07:58:36;1.20;99.90
13231;DHT22;6681;53.254;10.398;2023-02-15T08:01:23;1.30;99.90
13231;DHT22;6681;53.254;10.398;2023-02-15T08:03:49;1.40;99.90
13231;DHT22;6681;53.254;10.398;2023-02-15T08:06:15;1.40;99.90
13231;DHT22;6681;53.254;10.398;2023-02-15T08:08:41;1.50;99.90
13231;DHT22;6681;53.254;10.398;2023-02-15T08:11:15;1.50;99.90
13231;DHT22;6681;53.254;10.398;2023-02-15T08:21:52;1.80;99.90
13231;DHT22;6681;53.254;10.398;2023-02-15T08:24:20;2.10;99.90
13231;DHT22;6681;53.254;10.398;2023-02-15T08:26:46;1.90;99.90
13231;DHT22;6681;53.254;10.398;2023-02-15T08:29:14;1.90;99.90
13231;DHT22;6681;53.254;10.398;2023-02-15T08:31:40;2.40;99.90
13231;DHT22;6681;53.254;10.398;2023-02-15T08:34:08;2.00;99.90
13231;DHT22;6681;53.254;10.398;2023-02-15T08:36:34;1.90;99.90
13231;DHT22;6681;53.254;10.398;2023-02-15T08:39:02;2.00;99.90
13231;DHT22;6681;53.254;10.398;2023-02-15T08:41:35;2.30;99.90
13231;DHT22;6681;53.254;10.398;2023-02-15T08:44:04;2.70;99.90
13231;DHT22;6681;53.254;10.398;2023-02-15T08:46:32;2.10;99.90
13231;DHT22;6681;53.254;10.398;2023-02-15T08:48:58;2.10;99.90
13231;DHT22;6681;53.254;10.398;2023-02-15T08:51:30;2.20;99.90
13231;DHT22;6681;53.254;10.398;2023-02-15T08:53:58;2.20;99.90
13231;DHT22;6681;53.254;10.398;2023-02-15T08:56:26;2.50;99.90
13231;DHT22;6681;53.254;10.398;2023-02-15T08:58:53;2.40;99.90
13231;DHT22;6681;53.254;10.398;2023-02-15T09:01:22;3.70;99.90
13231;DHT22;6681;53.254;10.398;2023-02-15T09:03:50;2.30;99.90
13231;DHT22;6681;53.254;10.398;2023-02-15T09:06:18;2.30;99.90
13231;DHT22;6681;53.254;10.398;2023-02-15T09:08:44;2.20;99.90
13231;DHT22;6681;53.254;10.398;2023-02-15T09:11:21;2.30;99.90
13231;DHT22;6681;53.254;10.398;2023-02-15T09:13:56;2.20;99.90
13231;DHT22;6681;53.254;10.398;2023-02-15T09:16:23;2.20;99.90
13231;DHT22;6681;53.254;10.398;2023-02-15T09:18:50;2.40;99.90
13231;DHT22;6681;53.254;10.398;2023-02-15T09:21:18;2.60;99.90
13231;DHT22;6681;53.254;10.398;2023-02-15T09:23:46;2.30;99.90
13231;DHT22;6681;53.254;10.398;2023-02-15T09:26:14;2.40;99.90
13231;DHT22;6681;53.254;10.398;2023-02-15T09:28:40;2.90;99.90
13231;DHT22;6681;53.254;10.398;2023-02-15T09:31:18;2.60;99.90
13231;DHT22;6681;53.254;10.398;2023-02-15T09:33:45;2.70;99.90
13231;DHT22;6681;53.254;10.398;2023-02-15T09:36:23;2.70;99.90
13231;DHT22;6681;53.254;10.398;2023-02-15T09:38:57;2.70;99.90
13231;DHT22;6681;53.254;10.398;2023-02-15T09:41:50;4.30;99.90
13231;DHT22;6681;53.254;10.398;2023-02-15T09:48:01;2.80;99.90
13231;DHT22;6681;53.254;10.398;2023-02-15T09:54:06;4.00;99.90
13231;DHT22;6681;53.254;10.398;2023-02-15T10:02:19;2.90;99.90
13231;DHT22;6681;53.254;10.398;2023-02-15T10:13:06;0.80;99.90
13231;DHT22;6681;53.254;10.398;2023-02-15T10:18:34;2.90;99.90
13231;DHT22;6681;53.254;10.398;2023-02-15T10:23:49;3.10;99.90
13231;DHT22;6681;53.254;10.398;2023-02-15T10:26:42;3.20;99.90
13231;DHT22;6681;53.254;10.398;2023-02-15T10:29:29;3.30;99.90
13231;DHT22;6681;53.254;10.398;2023-02-15T10:34:39;3.40;99.90
13231;DHT22;6681;53.254;10.398;2023-02-15T10:37:21;3.50;99.90
13231;DHT22;6681;53.254;10.398;2023-02-15T10:40:10;4.90;99.90
13231;DHT22;6681;53.254;10.398;2023-02-15T10:50:55;3.90;99.90
13231;DHT22;6681;53.254;10.398;2023-02-15T10:53:57;3.90;99.90
13231;DHT22;6681;53.254;10.398;2023-02-15T10:56:45;3.90;99.90
13231;DHT22;6681;53.254;10.398;2023-02-15T11:02:36;4.10;99.90
13231;DHT22;6681;53.254;10.398;2023-02-15T11:08:00;4.20;99.90
13231;DHT22;6681;53.254;10.398;2023-02-15T11:13:07;4.30;99.90
13231;DHT22;6681;53.254;10.398;2023-02-15T11:19:16;4.40;99.90
13231;DHT22;6681;53.254;10.398;2023-02-15T11:23:46;4.60;99.90
13231;DHT22;6681;53.254;10.398;2023-02-15T11:26:16;4.70;99.90
13231;DHT22;6681;53.254;10.398;2023-02-15T11:28:52;4.80;99.90
13231;DHT22;6681;53.254;10.398;2023-02-15T11:31:23;5.00;99.90
13231;DHT22;6681;53.254;10.398;2023-02-15T11:33:57;5.10;99.90
13231;DHT22;6681;53.254;10.398;2023-02-15T11:36:28;5.20;99.90
13231;DHT22;6681;53.254;10.398;2023-02-15T11:39:01;5.30;99.90
13231;DHT22;6681;53.254;10.398;2023-02-15T11:41:31;5.30;99.90
13231;DHT22;6681;53.254;10.398;2023-02-15T11:44:20;5.30;99.90
13231;DHT22;6681;53.254;10.398;2023-02-15T11:46:48;5.40;99.90
13231;DHT22;6681;53.254;10.398;2023-02-15T11:49:31;5.40;99.90
13231;DHT22;6681;53.254;10.398;2023-02-15T11:51:58;5.60;99.90
13231;DHT22;6681;53.254;10.398;2023-02-15T11:54:29;5.60;99.90
13231;DHT22;6681;53.254;10.398;2023-02-15T11:57:30;5.60;99.90
13231;DHT22;6681;53.254;10.398;2023-02-15T12:02:31;5.80;99.90
13231;DHT22;6681;53.254;10.398;2023-02-15T12:05:03;5.80;99.90
13231;DHT22;6681;53.254;10.398;2023-02-15T12:07:41;5.90;99.90
13231;DHT22;6681;53.254;10.398;2023-02-15T12:10:32;6.00;99.90
13231;DHT22;6681;53.254;10.398;2023-02-15T12:13:19;6.10;99.90
13231;DHT22;6681;53.254;10.398;2023-02-15T12:15:52;6.20;99.90
13231;DHT22;6681;53.254;10.398;2023-02-15T12:18:27;6.30;99.90
13231;DHT22;6681;53.254;10.398;2023-02-15T12:21:03;6.50;99.90
13231;DHT22;6681;53.254;10.398;2023-02-15T12:23:31;6.50;99.90
13231;DHT22;6681;53.254;10.398;2023-02-15T12:25:58;6.50;99.90
13231;DHT22;6681;53.254;10.398;2023-02-15T12:28:30;6.60;99.90
13231;DHT22;6681;53.254;10.398;2023-02-15T12:30:57;6.80;99.90
13231;DHT22;6681;53.254;10.398;2023-02-15T12:33:35;6.80;99.90
13231;DHT22;6681;53.254;10.398;2023-02-15T12:36:04;6.80;99.90
13231;DHT22;6681;53.254;10.398;2023-02-15T12:38:35;6.90;99.90
13231;DHT22;6681;53.254;10.398;2023-02-15T12:41:04;7.10;99.90
13231;DHT22;6681;53.254;10.398;2023-02-15T12:43:38;7.20;99.90
13231;DHT22;6681;53.254;10.398;2023-02-15T12:46:21;7.30;99.90
13231;DHT22;6681;53.254;10.398;2023-02-15T12:48:49;7.40;99.90
13231;DHT22;6681;53.254;10.398;2023-02-15T12:51:30;7.50;99.90
13231;DHT22;6681;53.254;10.398;2023-02-15T12:53:57;7.50;99.90
13231;DHT22;6681;53.254;10.398;2023-02-15T12:56:26;7.50;99.90
13231;DHT22;6681;53.254;10.398;2023-02-15T12:59:04;7.50;99.90
13231;DHT22;6681;53.254;10.398;2023-02-15T13:01:32;7.50;99.90
13231;DHT22;6681;53.254;10.398;2023-02-15T13:04:00;7.60;99.90
13231;DHT22;6681;53.254;10.398;2023-02-15T13:06:28;7.60;99.90
13231;DHT22;6681;53.254;10.398;2023-02-15T13:08:58;7.70;99.90
13231;DHT22;6681;53.254;10.398;2023-02-15T13:11:31;7.80;99.90
13231;DHT22;6681;53.254;10.398;2023-02-15T13:14:28;7.90;99.90
13231;DHT22;6681;53.254;10.398;2023-02-15T13:16:58;8.00;99.90
13231;DHT22;6681;53.254;10.398;2023-02-15T13:19:36;8.10;99.90
13231;DHT22;6681;53.254;10.398;2023-02-15T13:22:14;8.20;99.90
13231;DHT22;6681;53.254;10.398;2023-02-15T13:24:44;8.40;99.90
13231;DHT22;6681;53.254;10.398;2023-02-15T13:27:19;8.40;99.90
13231;DHT22;6681;53.254;10.398;2023-02-15T13:29:52;8.50;99.90
13231;DHT22;6681;53.254;10.398;2023-02-15T13:35:04;8.60;99.90
13231;DHT22;6681;53.254;10.398;2023-02-15T13:48:44;9.00;99.90
13231;DHT22;6681;53.254;10.398;2023-02-15T13:51:21;9.00;99.90
13231;DHT22;6681;53.254;10.398;2023-02-15T14:07:51;9.50;99.90
13231;DHT22;6681;53.254;10.398;2023-02-15T14:10:57;9.40;99.90
13231;DHT22;6681;53.254;10.398;2023-02-15T14:19:09;9.20;99.90
13231;DHT22;6681;53.254;10.398;2023-02-15T14:21:52;9.20;99.90
13231;DHT22;6681;53.254;10.398;2023-02-15T14:27:44;9.10;99.90
13231;DHT22;6681;53.254;10.398;2023-02-15T14:30:23;9.10;99.90
13231;DHT22;6681;53.254;10.398;2023-02-15T14:33:05;9.10;99.90
13231;DHT22;6681;53.254;10.398;2023-02-15T14:35:32;9.10;99.90
13231;DHT22;6681;53.254;10.398;2023-02-15T14:38:19;9.10;99.90
13231;DHT22;6681;53.254;10.398;2023-02-15T14:43:47;9.20;99.90
13231;DHT22;6681;53.254;10.398;2023-02-15T14:46:34;9.40;99.90
13231;DHT22;6681;53.254;10.398;2023-02-15T14:49:18;9.40;99.90
13231;DHT22;6681;53.254;10.398;2023-02-15T15:02:49;8.90;99.90
13231;DHT22;6681;53.254;10.398;2023-02-15T15:05:33;8.90;99.90
13231;DHT22;6681;53.254;10.398;2023-02-15T15:08:01;8.90;99.90
13231;DHT22;6681;53.254;10.398;2023-02-15T15:10:39;8.80;99.90
13231;DHT22;6681;53.254;10.398;2023-02-15T15:16:23;8.70;99.90
13231;DHT22;6681;53.254;10.398;2023-02-15T15:18:47;8.70;99.90
13231;DHT22;6681;53.254;10.398;2023-02-15T15:38:19;8.40;99.90
13231;DHT22;6681;53.254;10.398;2023-02-15T15:41:01;8.30;99.90
13231;DHT22;6681;53.254;10.398;2023-02-15T15:49:08;8.20;99.90
13231;DHT22;6681;53.254;10.398;2023-02-15T15:51:40;8.20;99.90
13231;DHT22;6681;53.254;10.398;2023-02-15T15:54:05;8.20;99.90
13231;DHT22;6681;53.254;10.398;2023-02-15T15:56:34;8.10;99.90
13231;DHT22;6681;53.254;10.398;2023-02-15T15:59:06;8.00;99.90
13231;DHT22;6681;53.254;10.398;2023-02-15T16:01:42;8.00;99.90
13231;DHT22;6681;53.254;10.398;2023-02-15T16:04:30;8.00;99.90
13231;DHT22;6681;53.254;10.398;2023-02-15T16:06:58;7.90;99.90
13231;DHT22;6681;53.254;10.398;2023-02-15T16:09:35;7.80;99.90
13231;DHT22;6681;53.254;10.398;2023-02-15T16:12:00;7.80;99.90
13231;DHT22;6681;53.254;10.398;2023-02-15T16:14:39;7.80;99.90
13231;DHT22;6681;53.254;10.398;2023-02-15T16:17:08;7.70;99.90
13231;DHT22;6681;53.254;10.398;2023-02-15T16:19:41;7.70;99.90
13231;DHT22;6681;53.254;10.398;2023-02-15T16:22:17;7.60;99.90
13231;DHT22;6681;53.254;10.398;2023-02-15T16:27:43;7.60;99.90
13231;DHT22;6681;53.254;10.398;2023-02-15T16:32:52;7.60;99.90
13231;DHT22;6681;53.254;10.398;2023-02-15T16:35:20;7.60;99.90
13231;DHT22;6681;53.254;10.398;2023-02-15T16:37:46;8.10;99.90
13231;DHT22;6681;53.254;10.398;2023-02-15T16:42:54;7.70;99.90
13231;DHT22;6681;53.254;10.398;2023-02-15T16:45:24;7.60;99.90
13231;DHT22;6681;53.254;10.398;2023-02-15T16:47:54;7.60;99.90
13231;DHT22;6681;53.254;10.398;2023-02-15T16:50:36;7.60;99.90
13231;DHT22;6681;53.254;10.398;2023-02-15T16:53:02;7.50;99.90
13231;DHT22;6681;53.254;10.398;2023-02-15T16:55:39;7.50;99.90
13231;DHT22;6681;53.254;10.398;2023-02-15T16:58:11;7.40;99.90
13231;DHT22;6681;53.254;10.398;2023-02-15T17:00:39;7.30;99.90
13231;DHT22;6681;53.254;10.398;2023-02-15T17:10:37;7.40;99.90
13231;DHT22;6681;53.254;10.398;2023-02-15T17:13:14;7.30;99.90
13231;DHT22;6681;53.254;10.398;2023-02-15T17:15:42;7.30;99.90
13231;DHT22;6681;53.254;10.398;2023-02-15T17:18:20;7.30;99.90
13231;DHT22;6681;53.254;10.398;2023-02-15T17:20:50;7.20;99.90
13231;DHT22;6681;53.254;10.398;2023-02-15T17:23:39;7.20;99.90
13231;DHT22;6681;53.254;10.398;2023-02-15T17:28:46;7.00;99.90
13231;DHT22;6681;53.254;10.398;2023-02-15T17:31:14;7.00;99.90
13231;DHT22;6681;53.254;10.398;2023-02-15T17:33:41;7.10;99.90
13231;DHT22;6681;53.254;10.398;2023-02-15T17:36:17;7.00;99.90
13231;DHT22;6681;53.254;10.398;2023-02-15T17:39:20;6.90;99.90
13231;DHT22;6681;53.254;10.398;2023-02-15T17:41:47;6.90;99.90
13231;DHT22;6681;53.254;10.398;2023-02-15T17:44:13;6.70;99.90
13231;DHT22;6681;53.254;10.398;2023-02-15T17:46:41;6.70;99.90
13231;DHT22;6681;53.254;10.398;2023-02-15T17:49:24;6.60;99.90
13231;DHT22;6681;53.254;10.398;2023-02-15T17:51:52;6.50;99.90
13231;DHT22;6681;53.254;10.398;2023-02-15T17:54:17;6.50;99.90
13231;DHT22;6681;53.254;10.398;2023-02-15T17:57:01;6.40;99.90
13231;DHT22;6681;53.254;10.398;2023-02-15T17:59:30;6.30;99.90
13231;DHT22;6681;53.254;10.398;2023-02-15T18:01:56;6.30;99.90
13231;DHT22;6681;53.254;10.398;2023-02-15T18:04:40;6.30;99.90
13231;DHT22;6681;53.254;10.398;2023-02-15T18:07:25;6.20;99.90
13231;DHT22;6681;53.254;10.398;2023-02-15T18:10:14;6.10;99.90
13231;DHT22;6681;53.254;10.398;2023-02-15T18:13:00;6.10;99.90
13231;DHT22;6681;53.254;10.398;2023-02-15T18:15:25;6.10;99.90
13231;DHT22;6681;53.254;10.398;2023-02-15T18:17:51;6.10;99.90
13231;DHT22;6681;53.254;10.398;2023-02-15T18:20:33;6.10;99.90
13231;DHT22;6681;53.254;10.398;2023-02-15T18:23:01;6.10;99.90
13231;DHT22;6681;53.254;10.398;2023-02-15T18:25:27;6.00;99.90
13231;DHT22;6681;53.254;10.398;2023-02-15T18:27:52;5.90;99.90
13231;DHT22;6681;53.254;10.398;2023-02-15T18:30:20;5.90;99.90
13231;DHT22;6681;53.254;10.398;2023-02-15T18:32:49;5.80;99.90
13231;DHT22;6681;53.254;10.398;2023-02-15T18:35:18;6.00;99.90
13231;DHT22;6681;53.254;10.398;2023-02-15T18:37:45;5.80;99.90
13231;DHT22;6681;53.254;10.398;2023-02-15T18:40:24;5.90;99.90
13231;DHT22;6681;53.254;10.398;2023-02-15T18:42:50;6.00;99.90
13231;DHT22;6681;53.254;10.398;2023-02-15T18:45:18;6.00;99.90
13231;DHT22;6681;53.254;10.398;2023-02-15T18:47:46;5.90;99.90
13231;DHT22;6681;53.254;10.398;2023-02-15T18:50:14;5.90;99.90
13231;DHT22;6681;53.254;10.398;2023-02-15T18:52:40;5.90;99.90
13231;DHT22;6681;53.254;10.398;2023-02-15T18:57:47;5.80;99.90
13231;DHT22;6681;53.254;10.398;2023-02-15T19:00:24;5.80;99.90
13231;DHT22;6681;53.254;10.398;2023-02-15T19:02:50;5.80;99.90
13231;DHT22;6681;53.254;10.398;2023-02-15T19:05:16;6.00;99.90
13231;DHT22;6681;53.254;10.398;2023-02-15T19:07:45;5.80;99.90
13231;DHT22;6681;53.254;10.398;2023-02-15T19:10:17;5.90;99.90
13231;DHT22;6681;53.254;10.398;2023-02-15T19:12:43;5.60;99.90
13231;DHT22;6681;53.254;10.398;2023-02-15T19:15:18;5.60;99.90
13231;DHT22;6681;53.254;10.398;2023-02-15T19:17:44;5.50;99.90
13231;DHT22;6681;53.254;10.398;2023-02-15T19:20:17;5.40;99.90